Time;durP1;ratioP1;P1;durP2;ratioP2;P2;SDS_P1;SDS_P2;PMS_P1;PMS_P2;Temp;Humidity;BMP_temperature;BMP_pressure;BME280_temperature;BME280_humidity;BME280_pressure;Samples;Min_cycle;Max_cycle;Signal;HPM_P1;HPM_P2
2021/06/30 00:00:05;;;;;;;9.80;9.00;;;;;;;23.45;60.39;98102.00;2281154;77;20961;-78
2021/06/30 00:03:07;;;;;;;10.10;9.10;;;;;;;23.49;60.43;98103.56;2260931;78;20921;-76
2021/06/30 00:06:08;;;;;;;9.93;8.93;;;;;;;23.46;60.43;98098.40;2281440;77;20875;-77
2021/06/30 00:09:09;;;;;;;10.63;9.00;;;;;;;23.54;60.26;98094.00;2281663;78;20911;-77
2021/06/30 00:12:10;;;;;;;46.40;23.10;;;;;;;23.53;60.55;98091.42;2281691;77;20965;-79
2021/06/30 00:15:11;;;;;;;16.95;15.30;;;;;;;23.45;60.75;98086.02;2281688;78;20937;-77
2021/06/30 00:18:12;;;;;;;16.42;11.68;;;;;;;23.33;61.33;98087.95;2281932;78;20906;-79
2021/06/30 00:21:13;;;;;;;11.97;10.75;;;;;;;23.30;61.41;98080.13;2281842;78;21366;-78
2021/06/30 00:24:14;;;;;;;14.60;11.57;;;;;;;23.31;61.77;98074.33;2281640;78;21124;-77
2021/06/30 00:27:15;;;;;;;16.35;10.60;;;;;;;23.28;61.51;98058.05;2281618;78;20994;-76
2021/06/30 00:30:16;;;;;;;17.10;10.45;;;;;;;23.28;61.81;98054.52;2281675;78;20962;-79
2021/06/30 00:33:18;;;;;;;12.80;9.88;;;;;;;23.31;62.09;98051.70;2281750;78;20902;-77
2021/06/30 00:36:19;;;;;;;11.00;8.58;;;;;;;23.32;62.33;98037.45;2281817;78;20958;-79
2021/06/30 00:39:22;;;;;;;9.38;8.60;;;;;;;22.91;61.38;98024.94;2268120;77;20959;-79
2021/06/30 00:42:22;;;;;;;12.58;8.95;;;;;;;22.29;62.46;98028.38;2249463;79;20988;-80
2021/06/30 00:45:23;;;;;;;11.20;9.95;;;;;;;21.83;64.33;98033.18;2249409;79;20881;-77
2021/06/30 00:48:24;;;;;;;13.43;10.20;;;;;;;22.43;65.36;98035.69;2249446;79;20935;-77
2021/06/30 00:51:25;;;;;;;14.53;10.88;;;;;;;22.96;63.83;98028.23;2248917;79;20960;-77
2021/06/30 00:54:26;;;;;;;10.72;9.73;;;;;;;23.19;63.05;98023.91;2249363;79;20976;-78
2021/06/30 00:57:28;;;;;;;11.88;10.68;;;;;;;23.32;62.54;98028.98;2249421;79;20940;-77
2021/06/30 01:00:29;;;;;;;14.95;10.25;;;;;;;23.41;62.26;98024.54;2249424;79;20937;-78
2021/06/30 01:03:29;;;;;;;10.78;9.68;;;;;;;23.49;61.86;98022.33;2249356;79;20893;-77
2021/06/30 01:06:30;;;;;;;12.00;10.03;;;;;;;23.55;61.54;98009.66;2249456;79;20896;-77
2021/06/30 01:09:31;;;;;;;10.30;9.30;;;;;;;23.57;61.67;98010.44;2249365;79;20928;-77
2021/06/30 01:12:32;;;;;;;11.00;9.25;;;;;;;23.63;61.52;98018.10;2249772;79;20980;-80
2021/06/30 01:15:33;;;;;;;13.48;9.90;;;;;;;23.65;61.60;98058.37;2249755;79;20956;-78
2021/06/30 01:18:34;;;;;;;13.95;11.22;;;;;;;23.54;62.87;98213.88;2249557;79;20953;-77
2021/06/30 01:21:35;;;;;;;13.65;10.00;;;;;;;23.32;63.48;98200.73;2249102;79;20971;-81
2021/06/30 01:24:36;;;;;;;11.45;10.32;;;;;;;23.02;63.64;98164.52;2249346;79;20932;-79
2021/06/30 01:27:37;;;;;;;11.80;10.63;;;;;;;22.52;64.92;98261.30;2249670;79;20984;-80
2021/06/30 01:30:38;;;;;;;11.10;10.10;;;;;;;22.12;65.91;98254.23;2249727;79;20920;-82
2021/06/30 01:33:39;;;;;;;18.10;9.85;;;;;;;21.85;67.58;98284.17;2249643;79;20944;-81
2021/06/30 01:36:40;;;;;;;10.03;8.53;;;;;;;21.60;65.80;98277.20;2249697;79;20901;-79
2021/06/30 01:39:41;;;;;;;8.50;7.55;;;;;;;21.23;65.95;98268.54;2263965;77;20946;-80
2021/06/30 01:42:43;;;;;;;8.30;6.50;;;;;;;20.88;66.87;98251.33;2281593;77;20961;-80
2021/06/30 01:45:44;;;;;;;7.80;6.92;;;;;;;20.56;67.43;98207.92;2282029;78;21265;-81
2021/06/30 01:48:45;;;;;;;9.98;6.40;;;;;;;20.30;68.55;98202.25;2282076;77;20962;-81
2021/06/30 01:51:46;;;;;;;9.00;5.20;;;;;;;20.05;68.46;98210.23;2281849;78;20930;-79
2021/06/30 01:54:47;;;;;;;7.72;6.03;;;;;;;19.84;68.85;98203.89;2282230;78;21317;-79
2021/06/30 01:57:47;;;;;;;7.10;4.92;;;;;;;19.70;68.77;98199.08;2282402;77;21302;-81
2021/06/30 02:00:48;;;;;;;6.53;5.40;;;;;;;19.61;69.58;98203.38;2282231;78;21297;-78
2021/06/30 02:03:49;;;;;;;7.00;6.00;;;;;;;19.51;69.33;98212.52;2282434;78;20996;-78
2021/06/30 02:06:50;;;;;;;7.25;6.55;;;;;;;19.36;69.92;98216.55;2282414;77;20958;-77
2021/06/30 02:09:51;;;;;;;6.83;5.37;;;;;;;19.32;69.77;98214.05;2282164;78;20922;-77
2021/06/30 02:12:52;;;;;;;22.35;8.63;;;;;;;19.40;69.97;98232.73;2281581;78;20936;-79
2021/06/30 02:15:53;;;;;;;9.13;7.28;;;;;;;19.60;70.96;98212.70;2281588;77;20871;-78
2021/06/30 02:18:54;;;;;;;9.90;5.87;;;;;;;20.17;70.44;98208.47;2281700;78;20887;-77
2021/06/30 02:21:55;;;;;;;11.40;8.75;;;;;;;20.25;69.09;98206.40;2281459;77;21032;-78
2021/06/30 02:24:58;;;;;;;7.67;6.90;;;;;;;20.72;69.38;98212.17;2282209;77;20942;-77
2021/06/30 02:27:59;;;;;;;10.85;6.35;;;;;;;21.22;67.83;98219.47;2281633;78;20938;-77
2021/06/30 02:31:00;;;;;;;12.50;6.97;;;;;;;21.57;65.93;98214.05;2282132;78;20899;-79
2021/06/30 02:34:01;;;;;;;10.23;6.83;;;;;;;21.12;65.43;98207.04;2282119;77;20985;-77
2021/06/30 02:37:02;;;;;;;19.02;6.72;;;;;;;20.64;66.43;98196.56;2281688;77;20970;-76
2021/06/30 02:40:02;;;;;;;8.00;7.20;;;;;;;20.22;68.03;98172.06;2265684;78;20902;-77
2021/06/30 02:43:04;;;;;;;17.15;7.28;;;;;;;19.86;68.71;98152.20;2249861;79;20904;-78
2021/06/30 02:46:04;;;;;;;11.93;7.53;;;;;;;19.87;69.89;98136.71;2249981;79;20956;-78
2021/06/30 02:49:06;;;;;;;15.78;7.05;;;;;;;20.47;69.76;98128.28;2249827;79;21360;-79
2021/06/30 02:52:07;;;;;;;10.18;7.90;;;;;;;20.97;68.86;98124.09;2249565;79;20948;-79
2021/06/30 02:55:08;;;;;;;12.85;6.95;;;;;;;20.73;67.04;98097.21;2249807;79;21003;-80
2021/06/30 02:58:09;;;;;;;7.55;6.75;;;;;;;20.22;67.38;98086.40;2249732;79;20916;-81
2021/06/30 03:01:10;;;;;;;7.78;7.08;;;;;;;19.90;68.47;98071.70;2249315;79;20941;-80
2021/06/30 03:04:10;;;;;;;8.38;7.00;;;;;;;19.54;69.84;98027.16;2249752;79;20940;-79
2021/06/30 03:07:11;;;;;;;10.03;6.75;;;;;;;19.19;71.59;97986.53;2249794;79;20948;-81
2021/06/30 03:10:12;;;;;;;12.50;7.30;;;;;;;18.98;71.42;97970.95;2249799;79;20948;-80
2021/06/30 03:13:13;;;;;;;11.85;7.45;;;;;;;18.91;72.26;97984.84;2249736;79;21011;-79
2021/06/30 03:16:15;;;;;;;9.50;7.58;;;;;;;18.84;72.78;98026.95;2249853;79;20924;-80
2021/06/30 03:19:16;;;;;;;13.32;8.25;;;;;;;18.75;73.71;98061.64;2249988;79;21284;-78
2021/06/30 03:22:17;;;;;;;15.03;9.00;;;;;;;18.70;73.77;98068.86;2249718;79;21012;-79
2021/06/30 03:25:18;;;;;;;14.33;9.10;;;;;;;18.63;74.54;98090.66;2249518;79;20919;-79
2021/06/30 03:28:19;;;;;;;12.90;9.90;;;;;;;18.57;75.00;98113.75;2249662;79;21280;-80
2021/06/30 03:31:20;;;;;;;10.13;8.73;;;;;;;18.49;75.50;98125.89;2249647;79;21347;-80
2021/06/30 03:34:21;;;;;;;13.43;9.10;;;;;;;18.44;76.03;98114.59;2249940;79;21028;-81
2021/06/30 03:37:22;;;;;;;20.85;8.93;;;;;;;18.37;76.40;98109.95;2249906;79;20992;-79
2021/06/30 03:40:23;;;;;;;11.95;8.53;;;;;;;18.30;76.73;98100.49;2271706;77;20916;-79
2021/06/30 03:43:24;;;;;;;13.93;8.45;;;;;;;18.24;76.95;98100.68;2291572;78;21011;-79
2021/06/30 03:46:25;;;;;;;15.08;8.70;;;;;;;18.20;77.09;98111.35;2291667;78;20904;-78
2021/06/30 03:49:26;;;;;;;13.65;8.98;;;;;;;18.19;76.87;98117.09;2291870;78;20885;-79
2021/06/30 03:52:27;;;;;;;14.68;9.13;;;;;;;18.21;76.83;98116.63;2291519;78;21043;-79
2021/06/30 03:55:28;;;;;;;9.18;8.25;;;;;;;18.25;76.84;98113.44;2291837;78;20939;-79
2021/06/30 03:58:30;;;;;;;8.90;8.15;;;;;;;18.28;77.29;98117.30;2291271;78;20893;-81
2021/06/30 04:01:31;;;;;;;11.95;8.70;;;;;;;18.30;77.04;98127.36;2291732;78;20943;-79
2021/06/30 04:04:32;;;;;;;9.50;8.60;;;;;;;18.44;76.75;98139.24;2291887;78;20900;-79
2021/06/30 04:07:33;;;;;;;8.98;8.18;;;;;;;18.44;76.75;98139.24;2291813;78;20956;-78
2021/06/30 04:10:34;;;;;;;9.25;7.62;;;;;;;18.50;76.24;98134.68;2291844;78;20892;-79
2021/06/30 04:13:35;;;;;;;8.50;7.10;;;;;;;18.58;76.02;98133.98;2291737;78;20970;-79
2021/06/30 04:16:36;;;;;;;8.73;7.78;;;;;;;18.67;75.93;98140.33;2291773;78;20928;-79
2021/06/30 04:19:37;;;;;;;11.28;8.03;;;;;;;18.72;75.91;98145.88;2291533;78;21402;-79
2021/06/30 04:22:38;;;;;;;8.43;7.65;;;;;;;18.86;75.53;98149.41;2291500;78;20956;-79
2021/06/30 04:25:39;;;;;;;8.43;7.55;;;;;;;18.86;75.53;98149.41;2291656;78;20939;-80
2021/06/30 04:28:40;;;;;;;10.68;8.73;;;;;;;18.89;75.37;98166.49;2291630;78;20971;-81
2021/06/30 04:31:41;;;;;;;10.40;8.38;;;;;;;18.92;75.44;98163.75;2291792;78;20916;-80
2021/06/30 04:34:42;;;;;;;12.30;8.65;;;;;;;18.97;75.48;98172.86;2291675;78;20967;-81
2021/06/30 04:37:43;;;;;;;8.63;7.30;;;;;;;19.03;75.85;98191.17;2291255;78;20885;-78
2021/06/30 04:40:44;;;;;;;8.00;7.08;;;;;;;19.09;75.83;98204.23;2285022;78;20958;-77
2021/06/30 04:43:45;;;;;;;7.75;6.95;;;;;;;19.17;75.48;98198.69;2280914;77;20930;-79
2021/06/30 04:46:46;;;;;;;17.40;7.50;;;;;;;19.20;75.18;98202.55;2280967;78;21338;-79
2021/06/30 04:49:47;;;;;;;7.67;6.97;;;;;;;19.29;75.05;98203.57;2281594;77;20975;-79
2021/06/30 04:52:48;;;;;;;10.30;7.75;;;;;;;19.35;75.11;98198.08;2280837;78;21012;-79
2021/06/30 04:55:49;;;;;;;11.38;7.80;;;;;;;19.51;75.43;98197.95;2281008;77;20934;-79
2021/06/30 04:58:50;;;;;;;9.75;7.22;;;;;;;19.70;75.51;98203.05;2281337;77;20986;-79
2021/06/30 05:01:51;;;;;;;13.78;7.53;;;;;;;19.85;74.52;98204.30;2280910;77;20953;-77
2021/06/30 05:04:52;;;;;;;18.45;8.35;;;;;;;20.00;74.38;98204.24;2281646;78;20906;-80
2021/06/30 05:07:53;;;;;;;29.98;9.58;;;;;;;20.27;73.93;98205.88;2282390;77;20910;-79
2021/06/30 05:10:53;;;;;;;14.68;7.50;;;;;;;20.59;73.36;98202.50;2282212;77;20883;-80
2021/06/30 05:13:54;;;;;;;9.93;6.17;;;;;;;20.91;72.45;98202.59;2281969;77;21006;-81
2021/06/30 05:16:55;;;;;;;15.03;7.37;;;;;;;21.22;71.56;98206.20;2281920;78;20910;-80
2021/06/30 05:19:56;;;;;;;14.03;8.33;;;;;;;21.50;71.14;98207.27;2281341;77;20962;-79
2021/06/30 05:22:57;;;;;;;16.50;8.23;;;;;;;21.67;70.11;98198.12;2280690;77;21052;-79
2021/06/30 05:25:59;;;;;;;11.30;6.37;;;;;;;21.97;69.88;98193.77;2281887;77;20961;-79
2021/06/30 05:29:00;;;;;;;6.10;5.58;;;;;;;22.14;67.79;98189.45;2281878;78;21142;-79
2021/06/30 05:32:01;;;;;;;6.35;5.37;;;;;;;22.27;67.32;98191.55;2281817;77;20938;-77
2021/06/30 05:35:01;;;;;;;6.47;5.75;;;;;;;22.44;67.40;98191.64;2281536;78;20937;-77
2021/06/30 05:38:02;;;;;;;9.30;5.37;;;;;;;22.54;67.07;98203.14;2282071;77;20922;-78
2021/06/30 05:41:03;;;;;;;5.80;5.08;;;;;;;22.81;67.12;98206.33;2287093;78;20992;-80
2021/06/30 05:44:04;;;;;;;5.50;5.00;;;;;;;23.02;65.50;98218.22;2290854;78;21072;-81
2021/06/30 05:47:05;;;;;;;6.62;4.37;;;;;;;23.14;65.55;98216.29;2291252;78;20951;-80
2021/06/30 05:50:06;;;;;;;5.87;5.35;;;;;;;23.39;64.52;98220.80;2291005;78;20896;-78
2021/06/30 05:53:07;;;;;;;6.22;5.17;;;;;;;23.77;64.44;98216.27;2290982;78;20975;-80
2021/06/30 05:56:08;;;;;;;17.12;6.35;;;;;;;24.00;63.33;98213.73;2291241;78;21023;-78
2021/06/30 05:59:09;;;;;;;12.65;5.58;;;;;;;24.10;62.50;98224.30;2291176;78;20928;-80
2021/06/30 06:02:11;;;;;;;11.68;5.20;;;;;;;24.12;62.58;98226.42;2291397;78;20948;-79
2021/06/30 06:05:12;;;;;;;8.33;5.30;;;;;;;24.13;62.40;98224.14;2291474;78;20980;-79
2021/06/30 06:08:13;;;;;;;5.62;5.12;;;;;;;24.18;62.24;98215.91;2291705;78;20948;-81
2021/06/30 06:11:14;;;;;;;16.17;6.30;;;;;;;24.34;61.55;98201.34;2290125;78;20949;-79
2021/06/30 06:14:15;;;;;;;11.05;5.72;;;;;;;24.57;61.58;98192.95;2290427;78;20979;-80
2021/06/30 06:17:15;;;;;;;7.22;5.10;;;;;;;24.83;61.07;98199.98;2291371;78;21105;-79
2021/06/30 06:20:17;;;;;;;10.90;6.45;;;;;;;25.02;60.43;98199.36;2291356;78;20913;-78
2021/06/30 06:23:17;;;;;;;6.30;5.75;;;;;;;25.09;60.10;98203.41;2291043;78;21019;-80
2021/06/30 06:26:20;;;;;;;7.20;6.40;;;;;;;25.25;59.72;98199.41;2291653;78;20920;-80
2021/06/30 06:29:23;;;;;;;7.25;6.30;;;;;;;25.29;59.54;98193.80;2291713;78;20931;-78
2021/06/30 06:32:24;;;;;;;11.68;6.62;;;;;;;25.39;59.00;98203.01;2291980;78;21359;-80
2021/06/30 06:35:24;;;;;;;9.18;6.28;;;;;;;25.39;58.97;98203.01;2291880;78;20908;-79
2021/06/30 06:38:26;;;;;;;19.48;6.92;;;;;;;25.49;58.40;98202.47;2290409;78;20892;-80
2021/06/30 06:41:27;;;;;;;10.40;6.78;;;;;;;25.43;58.43;98200.16;2283502;78;20950;-79
2021/06/30 06:44:28;;;;;;;13.10;7.53;;;;;;;25.44;58.44;98193.86;2282231;78;20907;-79
2021/06/30 06:47:29;;;;;;;10.72;8.25;;;;;;;25.50;58.39;98194.84;2281431;78;21306;-81
2021/06/30 06:50:30;;;;;;;10.05;6.90;;;;;;;25.67;58.12;98191.59;2282002;77;20918;-80
2021/06/30 06:53:31;;;;;;;12.85;7.80;;;;;;;25.81;57.58;98185.89;2281311;77;20981;-80
2021/06/30 06:56:32;;;;;;;9.88;7.62;;;;;;;25.76;57.66;98186.64;2281377;77;20923;-79
2021/06/30 06:59:33;;;;;;;7.30;6.60;;;;;;;25.80;57.62;98186.36;2280041;78;20957;-81
2021/06/30 07:02:34;;;;;;;8.48;6.58;;;;;;;25.96;57.31;98186.30;2280527;77;20907;-79
2021/06/30 07:05:35;;;;;;;8.28;6.20;;;;;;;26.11;56.88;98172.50;2281455;78;20937;-79
2021/06/30 07:08:36;;;;;;;7.70;6.10;;;;;;;26.21;56.75;98176.32;2281823;77;20911;-80
2021/06/30 07:11:37;;;;;;;6.78;6.00;;;;;;;26.52;55.98;98176.15;2281446;78;20926;-79
2021/06/30 07:14:38;;;;;;;7.47;6.55;;;;;;;26.62;55.60;98182.64;2281883;77;21204;-80
2021/06/30 07:17:39;;;;;;;7.60;6.90;;;;;;;26.65;55.49;98178.42;2279651;78;20918;-78
2021/06/30 07:20:40;;;;;;;9.20;5.60;;;;;;;27.04;54.97;98174.19;2281826;77;20982;-78
2021/06/30 07:23:43;;;;;;;7.12;6.33;;;;;;;26.81;54.04;98170.75;2281813;77;20922;-80
2021/06/30 07:26:45;;;;;;;11.85;7.25;;;;;;;26.86;54.55;98176.66;2280182;77;20990;-81
2021/06/30 07:29:46;;;;;;;9.33;6.22;;;;;;;26.81;54.51;98178.78;2280943;77;20974;-80
2021/06/30 07:32:47;;;;;;;14.83;7.35;;;;;;;26.95;54.50;98170.27;2281626;77;20942;-80
2021/06/30 07:35:48;;;;;;;11.75;6.25;;;;;;;27.22;54.25;98164.95;2282342;78;20918;-79
2021/06/30 07:38:52;;;;;;;9.08;5.97;;;;;;;27.51;53.00;98154.09;2279740;77;20989;-80
2021/06/30 07:41:53;;;;;;;7.65;6.30;;;;;;;27.78;52.62;98149.59;2260277;77;21399;-79
2021/06/30 07:44:56;;;;;;;7.90;6.42;;;;;;;27.99;52.33;98149.06;2250635;79;20972;-81
2021/06/30 07:47:57;;;;;;;11.33;6.92;;;;;;;27.78;52.17;98146.91;2250049;79;21128;-80
2021/06/30 07:50:58;;;;;;;7.47;6.70;;;;;;;28.08;52.07;98153.30;2249972;79;20916;-81
2021/06/30 07:53:59;;;;;;;11.00;7.22;;;;;;;28.31;53.04;98151.70;2249603;79;21400;-83
2021/06/30 07:57:00;;;;;;;8.53;7.37;;;;;;;28.16;52.55;98150.94;2250140;79;20924;-81
2021/06/30 08:00:01;;;;;;;14.85;6.83;;;;;;;28.42;52.23;98146.91;2249866;79;20951;-81
2021/06/30 08:03:02;;;;;;;12.30;8.13;;;;;;;28.70;51.68;98145.81;2249965;79;20908;-83
2021/06/30 08:06:03;;;;;;;8.58;7.30;;;;;;;28.91;51.11;98142.07;2250114;79;20980;-81
2021/06/30 08:09:04;;;;;;;9.60;7.25;;;;;;;29.11;50.90;98142.79;2250236;79;20951;-81
2021/06/30 08:12:05;;;;;;;10.98;7.75;;;;;;;29.14;49.87;98146.59;2249834;79;21292;-82
2021/06/30 08:15:06;;;;;;;12.60;7.62;;;;;;;29.17;49.77;98145.88;2249921;79;21291;-82
2021/06/30 08:18:07;;;;;;;8.45;6.50;;;;;;;28.97;50.17;98142.47;2250273;79;20912;-82
2021/06/30 08:21:08;;;;;;;12.00;6.78;;;;;;;29.28;50.06;98142.38;2250065;79;20912;-83
2021/06/30 08:24:09;;;;;;;8.45;6.62;;;;;;;29.53;49.31;98148.66;2250230;79;20943;-81
2021/06/30 08:27:12;;;;;;;9.18;6.37;;;;;;;29.64;48.16;98148.20;2250693;79;20999;-83
2021/06/30 08:30:13;;;;;;;8.80;5.93;;;;;;;29.75;47.32;98144.69;2250726;79;21364;-80
2021/06/30 08:33:14;;;;;;;6.28;5.70;;;;;;;29.84;47.48;98149.84;2250820;79;20989;-82
2021/06/30 08:36:15;;;;;;;10.80;5.83;;;;;;;30.09;46.47;98145.63;2250693;79;20956;-82
2021/06/30 08:39:16;;;;;;;9.18;5.37;;;;;;;29.98;45.43;98149.63;2250343;79;20924;-80
2021/06/30 08:42:17;;;;;;;5.97;4.47;;;;;;;29.77;45.39;98149.45;2273975;77;20966;-83
2021/06/30 08:45:18;;;;;;;4.35;3.95;;;;;;;29.68;44.54;98147.48;2282231;77;20915;-81
2021/06/30 08:48:19;;;;;;;4.47;3.98;;;;;;;29.36;44.67;98145.83;2282776;78;20903;-82
2021/06/30 08:51:20;;;;;;;7.20;3.72;;;;;;;29.72;44.71;98152.50;2280179;78;20937;-80
2021/06/30 08:54:20;;;;;;;7.70;4.08;;;;;;;29.74;44.40;98158.62;2254214;78;20935;-82
2021/06/30 08:57:22;;;;;;;4.17;3.75;;;;;;;29.58;45.84;98154.05;2282176;78;21347;-81
2021/06/30 09:00:23;;;;;;;8.13;4.75;;;;;;;29.71;45.13;98154.82;2281827;78;20954;-81
2021/06/30 09:03:24;;;;;;;6.12;4.12;;;;;;;29.43;45.15;98148.46;2281616;77;20993;-79
2021/06/30 09:06:26;;;;;;;7.58;4.47;;;;;;;29.30;45.64;98155.22;2282445;77;20914;-80
2021/06/30 09:09:27;;;;;;;6.87;4.05;;;;;;;29.69;45.29;98151.88;2282634;77;20906;-81
2021/06/30 09:12:27;;;;;;;6.45;4.10;;;;;;;29.82;43.88;98153.99;2282493;78;20961;-82
2021/06/30 09:15:33;;;;;;;6.22;3.50;;;;;;;30.02;44.15;98151.98;2282552;77;20946;-81
2021/06/30 09:18:33;;;;;;;8.18;3.67;;;;;;;30.26;43.22;98145.16;2282589;78;20958;-82
2021/06/30 09:21:34;;;;;;;12.65;3.83;;;;;;;30.42;41.62;98142.98;2282806;77;21050;-81
2021/06/30 09:24:35;;;;;;;5.95;4.00;;;;;;;30.24;43.15;98141.73;2282720;77;20954;-80
2021/06/30 09:27:38;;;;;;;6.75;4.00;;;;;;;30.60;41.12;98151.95;2262164;78;20935;-82
2021/06/30 09:30:39;;;;;;;4.95;3.92;;;;;;;30.61;41.28;98153.66;2282610;78;21013;-79
2021/06/30 09:33:40;;;;;;;5.55;4.40;;;;;;;30.25;41.87;98152.01;2282491;77;20966;-81
2021/06/30 09:36:44;;;;;;;7.47;4.30;;;;;;;29.75;42.39;98152.27;2282133;77;20946;-80
2021/06/30 09:39:45;;;;;;;6.58;4.45;;;;;;;29.78;41.93;98156.55;2281981;77;20974;-81
2021/06/30 09:42:46;;;;;;;8.55;4.40;;;;;;;30.03;42.29;98146.97;2255499;78;20944;-81
2021/06/30 09:45:47;;;;;;;7.60;5.25;;;;;;;30.23;41.33;98152.62;2249732;79;20984;-82
2021/06/30 09:48:48;;;;;;;5.67;5.03;;;;;;;30.37;42.43;98155.96;2248848;79;20920;-79
2021/06/30 09:51:50;;;;;;;6.00;4.57;;;;;;;30.64;41.09;98153.41;2249103;79;21055;-80
2021/06/30 09:54:51;;;;;;;10.98;5.25;;;;;;;30.61;41.10;98147.78;2248722;79;20936;-80
2021/06/30 09:57:52;;;;;;;9.53;5.10;;;;;;;30.62;41.95;98149.98;2248904;79;21007;-81
2021/06/30 10:00:52;;;;;;;11.85;4.97;;;;;;;30.80;41.48;98165.14;2248883;79;21090;-80
2021/06/30 10:03:53;;;;;;;12.58;5.03;;;;;;;30.85;41.14;98160.23;2250087;79;20912;-80
2021/06/30 10:06:54;;;;;;;8.53;4.12;;;;;;;30.85;41.11;98161.59;2249798;79;20956;-81
2021/06/30 10:09:55;;;;;;;13.45;3.87;;;;;;;30.91;40.44;98167.33;2249296;79;20904;-82
2021/06/30 10:12:56;;;;;;;6.30;3.67;;;;;;;30.92;39.49;98167.70;2249102;79;21288;-83
2021/06/30 10:15:57;;;;;;;8.05;4.33;;;;;;;30.96;37.76;98158.38;2249721;79;20959;-82
2021/06/30 10:18:58;;;;;;;4.85;3.60;;;;;;;30.79;38.92;98167.47;2249775;79;20876;-80
2021/06/30 10:21:59;;;;;;;5.92;3.47;;;;;;;30.89;39.10;98163.05;2248927;79;21031;-82
2021/06/30 10:25:00;;;;;;;6.55;3.50;;;;;;;30.88;37.23;98173.45;2249611;79;20904;-81
2021/06/30 10:28:01;;;;;;;15.28;4.03;;;;;;;30.14;39.49;98174.88;2249595;79;20924;-81
2021/06/30 10:31:02;;;;;;;8.88;3.12;;;;;;;29.69;40.12;98179.63;2249620;79;20971;-80
2021/06/30 10:34:03;;;;;;;6.03;2.70;;;;;;;29.34;39.45;98173.31;2249213;79;20980;-80
2021/06/30 10:37:04;;;;;;;3.00;2.70;;;;;;;28.89;40.02;98182.95;2249715;79;20900;-81
2021/06/30 10:40:09;;;;;;;4.72;2.87;;;;;;;29.00;40.41;98173.14;2250119;79;20877;-80
2021/06/30 10:43:13;;;;;;;7.95;3.80;;;;;;;29.36;41.57;98180.30;2277546;77;21441;-79
2021/06/30 10:46:15;;;;;;;7.58;3.20;;;;;;;29.32;41.20;98188.70;2281489;77;21386;-81
2021/06/30 10:49:16;;;;;;;11.68;4.58;;;;;;;29.25;40.29;98182.07;2281807;78;20934;-81
2021/06/30 10:52:17;;;;;;;6.72;2.67;;;;;;;29.71;41.10;98177.69;2281088;78;21385;-80
2021/06/30 10:55:18;;;;;;;8.48;3.00;;;;;;;29.34;39.47;98190.79;2280896;78;20890;-80
2021/06/30 10:58:21;;;;;;;2.55;2.12;;;;;;;28.15;41.13;98192.63;2260381;78;20890;-79
2021/06/30 11:01:23;;;;;;;2.92;2.30;;;;;;;27.97;42.43;98185.86;2280997;77;20955;-78
2021/06/30 11:04:25;;;;;;;2.85;2.20;;;;;;;28.31;42.18;98186.59;2280761;78;21721;-79
2021/06/30 11:07:26;;;;;;;5.37;2.10;;;;;;;28.57;41.54;98187.42;2281760;78;20910;-81
2021/06/30 11:10:27;;;;;;;4.60;2.17;;;;;;;28.94;40.72;98200.45;2281100;77;21361;-79
2021/06/30 11:13:28;;;;;;;3.15;2.35;;;;;;;28.73;41.69;98189.89;2280626;77;20953;-79
2021/06/30 11:16:29;;;;;;;2.62;2.25;;;;;;;28.62;42.22;98191.16;2281246;77;21652;-80
2021/06/30 11:19:30;;;;;;;2.33;2.12;;;;;;;28.77;41.45;98182.84;2280667;78;20949;-80
2021/06/30 11:22:31;;;;;;;2.22;2.00;;;;;;;28.74;40.34;98196.50;2280379;77;21048;-80
2021/06/30 11:25:32;;;;;;;5.08;2.87;;;;;;;28.36;40.58;98193.84;2280065;78;20960;-81
2021/06/30 11:28:37;;;;;;;7.62;1.98;;;;;;;28.52;41.38;98197.15;2280139;77;21353;-79
2021/06/30 11:31:38;;;;;;;4.87;2.40;;;;;;;28.63;40.89;98198.24;2279962;77;21302;-79
2021/06/30 11:34:39;;;;;;;4.80;1.85;;;;;;;28.50;41.87;98199.08;2279249;77;21015;-80
2021/06/30 11:37:41;;;;;;;1.92;1.67;;;;;;;28.27;41.53;98182.41;2280642;77;21026;-80
2021/06/30 11:40:52;;;;;;;8.80;2.02;;;;;;;28.49;41.15;98190.66;2280626;78;20994;-82
2021/06/30 11:43:55;;;;;;;6.22;1.75;;;;;;;28.95;40.75;98183.37;2301662;77;20892;-81
2021/06/30 11:46:56;;;;;;;7.53;2.20;;;;;;;28.96;40.65;98178.36;2301501;77;20927;-80
2021/06/30 11:49:57;;;;;;;2.22;1.67;;;;;;;29.28;40.12;98181.84;2301342;77;20881;-78
2021/06/30 11:52:58;;;;;;;1.60;1.50;;;;;;;29.30;39.15;98188.81;2301580;77;21059;-81
2021/06/30 11:55:59;;;;;;;2.83;1.40;;;;;;;28.93;39.11;98189.34;2301308;77;20927;-80
2021/06/30 11:59:03;;;;;;;3.02;1.57;;;;;;;29.10;39.28;98184.92;2301607;77;20959;-81
2021/06/30 12:02:03;;;;;;;3.58;1.40;;;;;;;28.92;39.77;98188.97;2301060;77;20988;-80
2021/06/30 12:05:04;;;;;;;4.12;1.70;;;;;;;28.75;39.64;98194.67;2300836;77;20963;-81
2021/06/30 12:08:04;;;;;;;4.15;1.65;;;;;;;28.71;40.29;98180.61;2301426;77;21406;-80
2021/06/30 12:11:08;;;;;;;3.08;1.30;;;;;;;28.81;40.00;98179.45;2301375;77;20920;-81
2021/06/30 12:14:09;;;;;;;1.40;1.27;;;;;;;28.83;38.70;98193.63;2301082;77;21339;-81
2021/06/30 12:17:10;;;;;;;1.12;1.12;;;;;;;28.42;39.05;98178.64;2300845;77;20964;-80
2021/06/30 12:20:11;;;;;;;3.22;1.22;;;;;;;28.45;40.13;98173.05;2301071;77;21031;-80
2021/06/30 12:23:17;;;;;;;1.50;1.40;;;;;;;28.82;39.82;98176.66;2301498;77;21340;-80
2021/06/30 12:26:14;;;;;;;3.05;1.67;;;;;;;28.67;39.74;98171.06;2301335;77;20992;-80
2021/06/30 12:29:16;;;;;;;1.70;1.50;;;;;;;28.60;39.22;98181.83;2302336;77;21265;-80
2021/06/30 12:32:17;;;;;;;4.53;1.45;;;;;;;28.99;40.01;98164.70;2302159;77;20979;-79
2021/06/30 12:35:18;;;;;;;3.58;1.60;;;;;;;29.40;38.61;98163.45;2301118;77;21030;-80
2021/06/30 12:38:18;;;;;;;4.92;1.45;;;;;;;29.55;40.24;98163.70;2301801;77;20892;-81
2021/06/30 12:41:19;;;;;;;1.77;1.35;;;;;;;29.53;38.24;98157.58;2299400;77;20944;-81
2021/06/30 12:44:20;;;;;;;2.08;1.52;;;;;;;29.82;38.98;98153.14;2280844;78;20953;-82
2021/06/30 12:47:21;;;;;;;2.72;1.52;;;;;;;29.74;38.65;98147.86;2279495;77;20957;-81
2021/06/30 12:50:22;;;;;;;7.70;2.10;;;;;;;29.93;38.34;98149.98;2280457;78;20930;-79
2021/06/30 12:53:24;;;;;;;3.75;1.40;;;;;;;30.10;37.32;98150.89;2280375;78;20950;-79
2021/06/30 12:56:28;;;;;;;1.30;1.20;;;;;;;29.54;37.99;98144.98;2280404;77;20987;-81
2021/06/30 12:59:28;;;;;;;5.42;1.50;;;;;;;29.37;38.46;98144.86;2279929;78;20964;-80
2021/06/30 13:02:29;;;;;;;4.45;1.40;;;;;;;29.46;38.36;98145.05;2280847;78;21353;-81
2021/06/30 13:05:33;;;;;;;4.55;2.20;;;;;;;29.69;38.28;98151.39;2280296;77;20910;-80
2021/06/30 13:08:34;;;;;;;3.50;1.72;;;;;;;29.41;37.63;98142.31;2280488;78;20951;-80
2021/06/30 13:11:35;;;;;;;4.37;1.50;;;;;;;29.42;38.69;98145.38;2279500;77;20967;-80
2021/06/30 13:14:37;;;;;;;3.58;1.27;;;;;;;29.49;37.82;98152.06;2279751;77;21017;-79
2021/06/30 13:17:38;;;;;;;1.40;1.30;;;;;;;29.44;37.30;98146.14;2279340;77;20958;-79
2021/06/30 13:20:39;;;;;;;3.12;1.52;;;;;;;29.49;38.03;98150.72;2280122;78;20949;-80
2021/06/30 13:36:23;;;;;;;2.33;1.20;;;;;;;29.42;37.66;98134.61;2280783;77;21085;-79
2021/06/30 13:39:24;;;;;;;3.67;1.30;;;;;;;28.96;38.17;98128.67;2280209;77;20978;-79
2021/06/30 13:42:25;;;;;;;2.10;1.00;;;;;;;28.85;38.52;98125.44;2267666;78;20968;-79
2021/06/30 13:45:26;;;;;;;1.37;1.25;;;;;;;28.79;38.92;98126.34;2247678;79;21153;-78
2021/06/30 13:48:27;;;;;;;3.70;1.37;;;;;;;28.97;38.44;98125.50;2248167;79;20980;-80
2021/06/30 13:51:28;;;;;;;1.67;1.10;;;;;;;28.72;38.75;98132.64;2248278;79;20976;-80
2021/06/30 13:54:29;;;;;;;2.98;1.57;;;;;;;28.91;38.97;98134.87;2248574;79;20992;-80
2021/06/30 13:57:30;;;;;;;2.65;1.12;;;;;;;28.92;38.18;98130.35;2248574;79;20880;-81
2021/06/30 14:00:30;;;;;;;2.90;1.25;;;;;;;29.02;37.17;98128.70;2248638;79;21308;-79
2021/06/30 14:03:31;;;;;;;1.65;1.30;;;;;;;29.05;38.46;98123.95;2248592;79;21261;-78
2021/06/30 14:06:32;;;;;;;3.70;1.45;;;;;;;29.25;37.49;98125.14;2248212;79;21328;-80
2021/06/30 14:09:34;;;;;;;4.37;1.50;;;;;;;29.15;37.40;98123.63;2248373;79;20949;-79
2021/06/30 14:12:35;;;;;;;1.52;1.02;;;;;;;29.23;38.45;98123.55;2248174;79;21042;-79
2021/06/30 14:15:37;;;;;;;2.70;1.50;;;;;;;29.22;37.22;98129.41;2248621;79;20979;-79
2021/06/30 14:18:37;;;;;;;9.10;1.45;;;;;;;29.11;37.52;98120.80;2248439;79;20877;-78